createdAt,value
2023-04-23T00:02:03.343Z,12.83
2023-04-23T00:04:34.101Z,12.80
2023-04-23T00:07:02.706Z,12.77
2023-04-23T00:09:32.504Z,12.72
2023-04-23T00:12:01.041Z,12.67
2023-04-23T00:14:28.261Z,12.68
2023-04-23T00:16:55.204Z,12.61
2023-04-23T00:19:21.803Z,12.58
2023-04-23T00:21:48.488Z,12.52
2023-04-23T00:24:15.144Z,12.50
2023-04-23T00:26:44.725Z,12.52
2023-04-23T00:29:11.385Z,12.48
2023-04-23T00:31:38.124Z,12.47
2023-04-23T00:34:04.780Z,12.41
2023-04-23T00:36:31.447Z,12.39
2023-04-23T00:38:58.061Z,12.36
2023-04-23T00:41:25.898Z,12.37
2023-04-23T00:43:53.352Z,12.35
2023-04-23T00:46:20.367Z,12.33
2023-04-23T00:48:47.688Z,12.29
2023-04-23T00:51:16.585Z,12.24
2023-04-23T00:53:43.342Z,12.22
2023-04-23T00:56:10.638Z,12.20
2023-04-23T00:58:37.875Z,12.14
2023-04-23T01:01:04.971Z,12.12
2023-04-23T01:03:32.821Z,12.10
2023-04-23T01:06:00.010Z,12.03
2023-04-23T01:08:27.117Z,12.01
2023-04-23T01:10:54.708Z,12.01
2023-04-23T01:13:22.629Z,12.01
2023-04-23T01:15:49.722Z,11.95
2023-04-23T01:18:16.370Z,11.91
2023-04-23T01:20:43.827Z,11.89
2023-04-23T01:23:10.697Z,11.90
2023-04-23T01:25:37.784Z,11.91
2023-04-23T01:28:06.710Z,11.84
2023-04-23T01:30:33.893Z,11.82
2023-04-23T01:33:01.856Z,11.81
2023-04-23T01:35:29.982Z,11.78
2023-04-23T01:37:59.126Z,11.76
2023-04-23T01:40:25.841Z,11.76
2023-04-23T01:42:52.717Z,11.69
2023-04-23T01:45:19.812Z,11.68
2023-04-23T01:47:48.062Z,11.62
2023-04-23T01:50:15.423Z,11.62
2023-04-23T01:52:45.846Z,11.60
2023-04-23T01:55:12.556Z,11.57
2023-04-23T01:57:39.175Z,11.58
2023-04-23T02:00:09.270Z,11.58
2023-04-23T02:02:36.254Z,11.53
2023-04-23T02:05:04.831Z,11.53
2023-04-23T02:07:32.550Z,11.46
2023-04-23T02:09:59.415Z,11.46
2023-04-23T02:12:29.020Z,11.43
2023-04-23T02:14:55.713Z,11.39
2023-04-23T02:17:25.571Z,11.36
2023-04-23T02:19:52.443Z,11.37
2023-04-23T02:22:19.082Z,11.38
2023-04-23T02:24:47.313Z,11.33
2023-04-23T02:27:14.035Z,11.31
2023-04-23T02:29:41.302Z,11.28
2023-04-23T02:32:08.880Z,11.23
2023-04-23T02:34:38.944Z,11.31
2023-04-23T02:37:05.935Z,11.24
2023-04-23T02:39:34.802Z,11.20
2023-04-23T02:42:02.074Z,11.16
2023-04-23T02:44:28.731Z,11.16
2023-04-23T02:46:56.446Z,11.12
2023-04-23T02:49:23.118Z,11.12
2023-04-23T02:51:49.816Z,11.06
2023-04-23T02:54:17.092Z,10.99
2023-04-23T02:56:43.963Z,10.97
2023-04-23T02:59:10.902Z,10.95
2023-04-23T03:01:37.522Z,10.96
2023-04-23T03:04:04.722Z,10.97
2023-04-23T03:06:35.772Z,10.91
2023-04-23T03:09:03.053Z,10.89
2023-04-23T03:11:29.729Z,10.88
2023-04-23T03:13:56.401Z,10.88
2023-04-23T03:16:23.075Z,10.84
2023-04-23T03:18:50.023Z,10.85
2023-04-23T03:21:16.672Z,10.80
2023-04-23T03:23:43.403Z,10.80
2023-04-23T03:26:11.146Z,10.77
2023-04-23T03:28:37.713Z,10.77
2023-04-23T03:31:04.571Z,10.75
2023-04-23T03:33:31.298Z,10.66
2023-04-23T03:35:58.452Z,10.66
2023-04-23T03:38:25.120Z,10.58
2023-04-23T03:40:51.770Z,10.58
2023-04-23T03:43:18.510Z,10.55
2023-04-23T03:45:45.369Z,10.54
2023-04-23T03:48:11.970Z,10.55
2023-04-23T03:50:40.631Z,10.52
2023-04-23T03:53:08.263Z,10.49
2023-04-23T03:55:34.874Z,10.44
2023-04-23T03:58:03.171Z,10.43
2023-04-23T04:00:29.956Z,10.40
2023-04-23T04:02:56.761Z,10.36
2023-04-23T04:05:23.688Z,10.35
2023-04-23T04:07:50.366Z,10.38
2023-04-23T04:10:17.080Z,10.41
2023-04-23T04:12:45.645Z,10.42
2023-04-23T04:15:12.315Z,10.41
2023-04-23T04:17:38.998Z,10.38
2023-04-23T04:20:08.548Z,10.37
2023-04-23T04:22:35.235Z,10.34
2023-04-23T04:25:01.991Z,10.33
2023-04-23T04:27:28.628Z,10.31
2023-04-23T04:29:58.260Z,10.28
2023-04-23T04:32:27.160Z,10.29
2023-04-23T04:34:54.115Z,10.31
2023-04-23T04:37:23.698Z,10.31
2023-04-23T04:39:50.340Z,10.32
2023-04-23T04:42:17.051Z,10.31
2023-04-23T04:44:43.996Z,10.32
2023-04-23T04:47:10.849Z,10.28
2023-04-23T04:49:38.406Z,10.28
2023-04-23T04:52:05.162Z,10.29
2023-04-23T04:54:31.863Z,10.29
2023-04-23T04:56:58.643Z,10.30
2023-04-23T04:59:25.287Z,10.30
2023-04-23T05:01:51.960Z,10.32
2023-04-23T05:04:18.749Z,10.35
2023-04-23T05:06:48.069Z,10.35
2023-04-23T05:09:14.698Z,10.36
2023-04-23T05:11:41.560Z,10.39
2023-04-23T05:14:08.249Z,10.43
2023-04-23T05:16:35.037Z,10.45
2023-04-23T05:19:01.701Z,10.47
2023-04-23T05:21:28.497Z,10.47
2023-04-23T05:23:55.622Z,10.48
2023-04-23T05:26:22.335Z,10.52
2023-04-23T05:28:49.131Z,10.58
2023-04-23T05:31:15.935Z,10.66
2023-04-23T05:33:49.713Z,10.68
2023-04-23T05:36:17.838Z,10.71
2023-04-23T05:38:44.527Z,10.79
2023-04-23T05:41:11.511Z,10.82
2023-04-23T05:43:38.233Z,10.89
2023-04-23T05:46:07.453Z,10.92
2023-04-23T05:48:34.786Z,10.98
2023-04-23T05:51:04.252Z,11.07
2023-04-23T05:53:30.993Z,11.23
2023-04-23T05:55:57.970Z,11.42
2023-04-23T05:58:24.600Z,11.67
2023-04-23T06:00:53.067Z,11.91
2023-04-23T06:03:20.069Z,12.14
2023-04-23T06:05:47.073Z,12.39
2023-04-23T06:08:14.013Z,12.67
2023-04-23T06:10:40.788Z,12.92
2023-04-23T06:13:09.550Z,13.18
2023-04-23T06:15:36.152Z,13.44
2023-04-23T06:18:02.909Z,13.68
2023-04-23T06:20:30.178Z,13.97
2023-04-23T06:22:56.799Z,14.22
2023-04-23T06:25:23.466Z,14.44
2023-04-23T06:27:50.112Z,14.66
2023-04-23T06:30:16.754Z,14.88
2023-04-23T06:32:43.536Z,15.14
2023-04-23T06:35:10.303Z,15.45
2023-04-23T06:37:36.954Z,15.66
2023-04-23T06:40:03.909Z,15.91
2023-04-23T06:42:30.851Z,16.14
2023-04-23T06:44:59.376Z,16.36
2023-04-23T06:47:26.096Z,16.60
2023-04-23T06:49:52.749Z,16.82
2023-04-23T06:52:19.452Z,17.07
2023-04-23T06:54:46.365Z,17.23
2023-04-23T06:57:12.987Z,17.43
2023-04-23T06:59:39.673Z,17.72
2023-04-23T07:02:06.566Z,17.89
2023-04-23T07:04:33.523Z,18.10
2023-04-23T07:07:00.539Z,18.28
2023-04-23T07:09:28.578Z,18.55
2023-04-23T07:11:55.176Z,18.75
2023-04-23T07:14:21.849Z,18.89
2023-04-23T07:16:48.497Z,19.01
2023-04-23T07:19:15.218Z,19.14
2023-04-23T07:21:42.304Z,19.38
2023-04-23T07:24:09.006Z,19.55
2023-04-23T07:26:36.308Z,19.76
2023-04-23T07:29:04.858Z,19.93
2023-04-23T07:31:31.525Z,20.08
2023-04-23T07:33:58.198Z,20.23
2023-04-23T07:36:24.935Z,20.45
2023-04-23T07:38:51.570Z,20.59
2023-04-23T07:41:18.368Z,20.64
2023-04-23T07:43:47.995Z,20.78
2023-04-23T07:46:17.194Z,20.94
2023-04-23T07:48:46.504Z,21.09
2023-04-23T07:51:13.158Z,21.23
2023-04-23T07:53:39.917Z,21.42
2023-04-23T07:56:06.710Z,21.55
2023-04-23T07:58:33.506Z,21.69
2023-04-23T08:01:00.110Z,21.80
2023-04-23T08:03:29.064Z,21.94
2023-04-23T08:05:56.958Z,22.08
2023-04-23T08:08:23.549Z,22.19
2023-04-23T08:10:50.224Z,22.28
2023-04-23T08:13:16.924Z,22.41
2023-04-23T08:15:43.604Z,22.48
2023-04-23T08:18:10.336Z,22.55
2023-04-23T08:20:37.120Z,22.67
2023-04-23T08:23:04.786Z,22.73
2023-04-23T08:25:32.798Z,22.78
2023-04-23T08:27:59.601Z,22.78
2023-04-23T08:30:26.385Z,22.80
2023-04-23T08:32:54.005Z,22.87
2023-04-23T08:35:21.344Z,22.91
2023-04-23T08:40:14.919Z,23.02
2023-04-23T08:42:53.484Z,23.06
2023-04-23T08:45:22.218Z,23.12
2023-04-23T08:47:49.164Z,23.14
2023-04-23T08:50:20.518Z,23.13
2023-04-23T08:52:51.571Z,23.16
2023-04-23T08:55:18.974Z,23.21
2023-04-23T08:57:47.028Z,23.19
2023-04-23T09:00:15.827Z,23.23
2023-04-23T09:02:47.053Z,23.27
2023-04-23T09:05:14.530Z,23.26
2023-04-23T09:07:41.894Z,23.27
2023-04-23T09:10:11.728Z,23.28
2023-04-23T09:12:43.429Z,23.35
2023-04-23T09:15:11.083Z,23.29
2023-04-23T09:17:44.028Z,23.26
2023-04-23T09:20:11.960Z,23.21
2023-04-23T09:22:56.835Z,23.22
2023-04-23T09:25:24.511Z,23.23
2023-04-23T09:27:53.203Z,23.27
2023-04-23T09:30:20.263Z,23.23
2023-04-23T09:32:48.078Z,23.21
2023-04-23T09:35:17.082Z,23.20
2023-04-23T09:37:49.120Z,23.16
2023-04-23T09:40:21.051Z,23.12
2023-04-23T09:42:57.568Z,23.00
2023-04-23T09:45:25.910Z,22.98
2023-04-23T09:47:57.713Z,22.91
2023-04-23T09:50:36.974Z,22.91
2023-04-23T09:53:04.828Z,22.87
2023-04-23T09:55:40.854Z,22.78
2023-04-23T09:58:15.780Z,22.73
2023-04-23T10:00:45.785Z,22.62
2023-04-23T10:03:12.893Z,22.52
2023-04-23T10:08:14.074Z,22.40
2023-04-23T10:10:55.079Z,22.39
2023-04-23T10:13:28.268Z,22.27
2023-04-23T10:15:55.204Z,22.24
2023-04-23T10:18:24.210Z,22.18
2023-04-23T10:20:52.427Z,22.15
2023-04-23T10:23:23.691Z,22.17
2023-04-23T10:26:00.393Z,22.14
2023-04-23T10:28:33.143Z,22.12
2023-04-23T10:31:04.072Z,22.13
2023-04-23T10:33:39.780Z,22.12
2023-04-23T10:36:12.968Z,22.11
2023-04-23T10:38:54.872Z,22.10
2023-04-23T10:41:28.979Z,22.11
2023-04-23T10:43:55.772Z,22.10
2023-04-23T10:46:33.244Z,22.08
2023-04-23T10:49:16.412Z,22.05
2023-04-23T10:52:17.684Z,22.06
2023-04-23T10:54:34.718Z,22.07
2023-04-23T10:57:03.816Z,22.07
2023-04-23T10:59:32.219Z,22.02
2023-04-23T11:02:07.321Z,22.02
2023-04-23T11:04:35.837Z,21.94
2023-04-23T11:07:10.469Z,21.93
2023-04-23T11:09:53.732Z,21.90
2023-04-23T11:12:27.073Z,21.87
2023-04-23T11:14:55.266Z,21.88
2023-04-23T11:17:34.154Z,21.82
2023-04-23T11:20:14.183Z,21.80
2023-04-23T11:22:44.953Z,21.81
2023-04-23T11:25:19.273Z,21.77
2023-04-23T11:27:47.238Z,21.77
2023-04-23T11:30:25.589Z,21.72
2023-04-23T11:32:54.618Z,21.70
2023-04-23T11:35:24.714Z,21.67
2023-04-23T11:37:51.393Z,21.65
2023-04-23T11:40:19.845Z,21.66
2023-04-23T11:42:51.670Z,21.61
2023-04-23T11:45:23.260Z,21.65
2023-04-23T11:47:57.133Z,21.68
2023-04-23T11:50:25.286Z,21.71
2023-04-23T11:52:52.938Z,21.72
2023-04-23T11:55:20.779Z,21.75
2023-04-23T11:57:49.928Z,21.76
2023-04-23T12:00:19.559Z,21.72
2023-04-23T12:03:03.488Z,21.70
2023-04-23T12:05:33.688Z,21.73
2023-04-23T12:08:17.348Z,21.77
2023-04-23T12:10:48.151Z,21.75
2023-04-23T12:13:21.118Z,21.77
2023-04-23T12:15:52.683Z,21.74
2023-04-23T12:18:19.769Z,21.78
2023-04-23T12:20:46.625Z,21.79
2023-04-23T12:23:13.265Z,21.83
2023-04-23T12:25:41.022Z,21.79
2023-04-23T12:28:08.002Z,21.79
2023-04-23T12:30:43.404Z,21.85
2023-04-23T12:33:12.085Z,21.93
2023-04-23T12:35:42.521Z,21.99
2023-04-23T12:38:25.695Z,22.03
2023-04-23T12:40:57.137Z,22.10
2023-04-23T12:43:25.582Z,22.14
2023-04-23T12:45:55.887Z,22.17
2023-04-23T12:48:22.528Z,22.14
2023-04-23T12:50:49.348Z,22.17
2023-04-23T12:53:16.083Z,22.21
2023-04-23T12:55:44.421Z,22.23
2023-04-23T12:58:11.198Z,22.25
2023-04-23T13:00:37.831Z,22.23
2023-04-23T13:03:04.933Z,22.24
2023-04-23T13:05:31.511Z,22.24
2023-04-23T13:07:59.349Z,22.24
2023-04-23T13:10:26.115Z,22.21
2023-04-23T13:12:52.870Z,22.22
2023-04-23T13:15:20.288Z,22.21
2023-04-23T13:17:47.303Z,22.18
2023-04-23T13:20:13.990Z,22.17
2023-04-23T13:22:40.747Z,22.18
2023-04-23T13:25:07.587Z,22.23
2023-04-23T13:27:34.235Z,22.25
2023-04-23T13:30:01.523Z,22.25
2023-04-23T13:32:32.123Z,22.29
2023-04-23T13:35:01.887Z,22.25
2023-04-23T13:37:30.289Z,22.18
2023-04-23T13:39:57.095Z,22.17
2023-04-23T13:42:23.780Z,22.20
2023-04-23T13:44:50.742Z,22.22
2023-04-23T13:47:20.076Z,22.24
2023-04-23T13:49:48.043Z,22.25
2023-04-23T13:52:14.978Z,22.27
2023-04-23T13:54:42.310Z,22.25
2023-04-23T13:57:12.033Z,22.29
2023-04-23T13:59:38.674Z,22.31
2023-04-23T14:02:08.104Z,22.28
2023-04-23T14:04:34.756Z,22.28
2023-04-23T14:07:01.445Z,22.25
2023-04-23T14:09:29.974Z,22.22
2023-04-23T14:11:56.970Z,22.14
2023-04-23T14:14:23.619Z,22.08
2023-04-23T14:16:50.431Z,22.08
2023-04-23T14:19:17.177Z,22.09
2023-04-23T14:21:44.113Z,22.07
2023-04-23T14:24:27.630Z,22.01
2023-04-23T14:26:54.434Z,21.98
2023-04-23T14:29:32.832Z,21.93
2023-04-23T14:31:59.492Z,21.91
2023-04-23T14:34:26.154Z,21.92
2023-04-23T14:36:53.504Z,21.88
2023-04-23T14:39:22.688Z,21.84
2023-04-23T14:41:49.343Z,21.88
2023-04-23T14:44:15.940Z,21.85
2023-04-23T14:46:42.630Z,21.80
2023-04-23T14:49:09.215Z,21.79
2023-04-23T14:51:37.504Z,21.79
2023-04-23T14:54:05.048Z,21.73
2023-04-23T14:56:31.770Z,21.76
2023-04-23T14:58:58.398Z,21.77
2023-04-23T15:01:25.077Z,21.77
2023-04-23T15:03:53.567Z,21.77
2023-04-23T15:06:23.441Z,21.77
2023-04-23T15:08:50.114Z,21.60
2023-04-23T15:11:16.853Z,21.66
2023-04-23T15:14:03.893Z,21.60
2023-04-23T15:19:06.387Z,21.59
2023-04-23T15:21:33.400Z,21.60
2023-04-23T15:24:00.022Z,21.59
2023-04-23T15:26:26.542Z,21.56
2023-04-23T15:28:53.192Z,21.53
2023-04-23T15:31:19.818Z,21.43
2023-04-23T15:33:47.893Z,21.39
2023-04-23T15:36:14.584Z,21.35
2023-04-23T15:38:41.457Z,21.29
2023-04-23T15:41:11.390Z,21.24
2023-04-23T15:43:38.011Z,21.16
2023-04-23T15:46:04.706Z,21.13
2023-04-23T15:48:31.493Z,21.11
2023-04-23T15:50:58.370Z,21.04
2023-04-23T15:53:25.092Z,20.98
2023-04-23T15:55:55.029Z,21.00
2023-04-23T15:58:24.490Z,20.97
2023-04-23T16:00:51.161Z,20.95
2023-04-23T16:03:18.029Z,20.95
2023-04-23T16:05:48.165Z,20.91
2023-04-23T16:08:16.365Z,20.92
2023-04-23T16:10:43.170Z,20.88
2023-04-23T16:13:12.681Z,20.85
2023-04-23T16:15:39.299Z,20.80
2023-04-23T16:18:06.601Z,20.79
2023-04-23T16:20:33.508Z,20.75
2023-04-23T16:23:00.249Z,20.73
2023-04-23T16:25:27.019Z,20.70
2023-04-23T16:27:54.033Z,20.68
2023-04-23T16:30:21.262Z,20.61
2023-04-23T16:32:47.946Z,20.61
2023-04-23T16:35:14.626Z,20.55
2023-04-23T16:37:41.404Z,20.52
2023-04-23T16:40:09.164Z,20.49
2023-04-23T16:42:36.058Z,20.44
2023-04-23T16:45:03.083Z,20.38
2023-04-23T16:47:29.816Z,20.35
2023-04-23T16:49:56.633Z,20.34
2023-04-23T16:52:25.459Z,20.31
2023-04-23T16:54:52.041Z,20.28
2023-04-23T16:57:18.917Z,20.27
2023-04-23T16:59:45.687Z,20.26
2023-04-23T17:02:12.582Z,20.19
2023-04-23T17:04:39.742Z,20.18
2023-04-23T17:07:07.594Z,20.13
2023-04-23T17:09:34.935Z,20.10
2023-04-23T17:12:02.248Z,20.05
2023-04-23T17:14:31.129Z,20.01
2023-04-23T17:16:57.843Z,19.99
2023-04-23T17:19:24.524Z,19.94
2023-04-23T17:21:53.485Z,19.91
2023-04-23T17:24:22.413Z,19.87
2023-04-23T17:26:51.637Z,19.88
2023-04-23T17:29:18.317Z,19.85
2023-04-23T17:31:45.393Z,19.83
2023-04-23T17:34:12.222Z,19.81
2023-04-23T17:36:38.987Z,19.77
2023-04-23T17:39:05.816Z,19.66
2023-04-23T17:41:32.584Z,19.69
2023-04-23T17:43:59.268Z,19.67
2023-04-23T17:46:26.022Z,19.67
2023-04-23T17:48:52.762Z,19.66
2023-04-23T17:51:19.509Z,19.63
2023-04-23T17:53:50.604Z,19.58
2023-04-23T17:56:17.282Z,19.56
2023-04-23T17:58:44.027Z,19.53
2023-04-23T18:01:10.841Z,19.47
2023-04-23T18:03:38.368Z,19.41
2023-04-23T18:06:05.638Z,19.42
2023-04-23T18:08:32.350Z,19.40
2023-04-23T18:10:59.557Z,19.40
2023-04-23T18:13:26.470Z,19.36
2023-04-23T18:15:53.184Z,19.31
2023-04-23T18:18:21.725Z,19.28
2023-04-23T18:20:49.294Z,19.24
2023-04-23T18:23:16.138Z,19.23
2023-04-23T18:25:42.918Z,19.18
2023-04-23T18:28:09.775Z,19.16
2023-04-23T18:30:39.437Z,19.14
2023-04-23T18:33:15.333Z,19.10
2023-04-23T18:35:45.320Z,19.08
2023-04-23T18:38:25.753Z,19.06
2023-04-23T18:40:52.474Z,19.02
2023-04-23T18:43:19.157Z,18.99
2023-04-23T18:45:47.041Z,18.97
2023-04-23T18:48:35.462Z,18.93
2023-04-23T18:51:13.513Z,18.89
2023-04-23T18:53:40.307Z,18.87
2023-04-23T18:56:10.035Z,18.83
2023-04-23T18:58:36.835Z,18.81
2023-04-23T19:01:03.905Z,18.77
2023-04-23T19:03:31.350Z,18.77
2023-04-23T19:05:58.240Z,18.74
2023-04-23T19:08:30.727Z,18.70
2023-04-23T19:10:57.543Z,18.70
2023-04-23T19:13:24.484Z,18.68
2023-04-23T19:15:51.592Z,18.67
2023-04-23T19:18:18.843Z,18.64
2023-04-23T19:20:45.545Z,18.61
2023-04-23T19:23:12.223Z,18.60
2023-04-23T19:25:38.889Z,18.57
2023-04-23T19:28:05.528Z,18.55
2023-04-23T19:30:32.478Z,18.49
2023-04-23T19:32:59.345Z,18.50
2023-04-23T19:35:26.572Z,18.45
2023-04-23T19:37:53.304Z,18.43
2023-04-23T19:40:19.986Z,18.40
2023-04-23T19:42:46.661Z,18.37
2023-04-23T19:45:15.577Z,18.34
2023-04-23T19:47:42.412Z,18.30
2023-04-23T19:50:14.042Z,18.26
2023-04-23T19:52:41.441Z,18.23
2023-04-23T19:55:10.320Z,18.20
2023-04-23T19:57:37.303Z,18.18
2023-04-23T20:00:06.624Z,18.14
2023-04-23T20:02:35.136Z,18.11
2023-04-23T20:05:02.996Z,18.09
2023-04-23T20:07:29.717Z,18.05
2023-04-23T20:09:56.373Z,18.01
2023-04-23T20:12:24.690Z,17.91
2023-04-23T20:14:51.801Z,17.91
2023-04-23T20:17:20.208Z,17.85
2023-04-23T20:19:46.884Z,17.74
2023-04-23T20:22:13.619Z,17.75
2023-04-23T20:24:42.767Z,17.69
2023-04-23T20:27:09.396Z,17.63
2023-04-23T20:29:36.087Z,17.58
2023-04-23T20:32:02.760Z,17.59
2023-04-23T20:34:29.581Z,17.60
2023-04-23T20:36:58.914Z,17.55
2023-04-23T20:39:25.661Z,17.52
2023-04-23T20:41:52.629Z,17.44
2023-04-23T20:44:22.699Z,17.41
2023-04-23T20:46:53.002Z,17.39
2023-04-23T20:49:20.075Z,17.40
2023-04-23T20:51:46.863Z,17.35
2023-04-23T20:54:13.546Z,17.33
2023-04-23T20:56:40.331Z,17.30
2023-04-23T20:59:07.040Z,17.27
2023-04-23T21:01:33.874Z,17.21
2023-04-23T21:04:05.977Z,17.23
2023-04-23T21:06:33.521Z,17.18
2023-04-23T21:09:00.191Z,17.19
2023-04-23T21:11:27.901Z,17.19
2023-04-23T21:14:00.228Z,17.20
2023-04-23T21:16:27.593Z,17.18
2023-04-23T21:18:54.250Z,17.21
2023-04-23T21:21:27.076Z,17.18
2023-04-23T21:23:53.740Z,17.18
2023-04-23T21:26:21.113Z,17.16
2023-04-23T21:28:47.781Z,17.16
2023-04-23T21:31:29.756Z,17.18
2023-04-23T21:33:56.941Z,17.20
2023-04-23T21:36:23.745Z,17.20
2023-04-23T21:38:50.557Z,17.17
2023-04-23T21:41:17.667Z,17.18
2023-04-23T21:43:44.418Z,17.18
2023-04-23T21:46:11.143Z,17.21
2023-04-23T21:48:37.875Z,17.22
2023-04-23T21:51:05.160Z,17.19
2023-04-23T21:53:31.754Z,17.22
2023-04-23T21:56:00.828Z,17.26
2023-04-23T21:58:28.039Z,17.27
2023-04-23T22:00:55.357Z,17.32
2023-04-23T22:03:30.863Z,17.34
2023-04-23T22:06:05.213Z,17.32
2023-04-23T22:08:33.079Z,17.32
2023-04-23T22:10:59.955Z,17.36
2023-04-23T22:13:26.846Z,17.41
2023-04-23T22:15:53.595Z,17.40
2023-04-23T22:18:20.665Z,17.43
2023-04-23T22:20:49.572Z,17.39
2023-04-23T22:23:16.434Z,17.43
2023-04-23T22:25:43.159Z,17.49
2023-04-23T22:28:09.783Z,17.47
2023-04-23T22:30:36.738Z,17.50
2023-04-23T22:33:04.179Z,17.48
2023-04-23T22:35:31.880Z,17.53
2023-04-23T22:37:58.707Z,17.51
2023-04-23T22:40:25.356Z,17.52
2023-04-23T22:42:52.019Z,17.45
2023-04-23T22:45:18.809Z,17.44
2023-04-23T22:47:45.516Z,17.43
2023-04-23T22:50:12.358Z,17.42
2023-04-23T22:52:39.053Z,17.41
2023-04-23T22:55:06.260Z,17.43
2023-04-23T22:57:33.017Z,17.43
2023-04-23T23:00:00.731Z,17.41
2023-04-23T23:02:27.485Z,17.35
2023-04-23T23:04:54.786Z,17.35
2023-04-23T23:07:21.711Z,17.38
2023-04-23T23:09:48.360Z,17.38
2023-04-23T23:12:15.043Z,17.34
2023-04-23T23:14:41.783Z,17.31
2023-04-23T23:17:08.459Z,17.27
2023-04-23T23:19:35.102Z,17.28
2023-04-23T23:22:01.851Z,17.31
2023-04-23T23:24:28.418Z,17.30
2023-04-23T23:26:55.050Z,17.21
2023-04-23T23:29:21.692Z,17.26
2023-04-23T23:31:48.506Z,17.19
2023-04-23T23:34:15.376Z,17.14
2023-04-23T23:36:42.096Z,17.16
2023-04-23T23:39:08.801Z,17.20
2023-04-23T23:41:35.356Z,17.14
2023-04-23T23:44:04.226Z,17.14
2023-04-23T23:46:30.888Z,17.12
2023-04-23T23:48:57.526Z,17.12
2023-04-23T23:51:24.236Z,17.15
2023-04-23T23:53:50.903Z,17.17
2023-04-23T23:56:17.639Z,17.19
2023-04-23T23:58:44.314Z,17.23
